Impacts TAF Board
For situational awareness. Not to be used for flight planning purposes.
IDs:

KMGM - Montgomery/Dannely F, AL, US

Issued at 1737 UTC 07 Dec 2021
Updated at 1921 UTC 07 Dec 2021
Potential Impact None Slight Moderate High
Time1853Z 07/20Z 07/21Z 07/22Z 07/23Z 08/00Z 08/01Z 08/02Z 08/03Z 08/04Z 08/05Z 08/06Z 08/07Z 08/08Z>>
Type OBS PRVL PRVL PRVL PRVL PRVL PRVL PRVL PRVL PRVL PRVL PRVL PRVL PRVL
VIS 10 >6 >6 >6 >6 >6 >6 >6 >6 >6 >6 >6 3 3
CIG 17 20 20 20 20 20 20 20 20 20 8 8 5 5
Cover OVC OVC OVC OVC OVC OVC OVC OVC OVC OVC OVC OVC OVC OVC
FltCat MVFR MVFR MVFR MVFR MVFR MVFR MVFR MVFR MVFR MVFR IFR IFR IFR IFR
WX -- VCSH VCSH VCSH VCSH VCSH VCSH VCSH VCSH VCSH -- -- -SHRA BR -SHRA BR
WDir 10 VRB VRB VRB VRB VRB VRB VRB VRB VRB VRB VRB VRB VRB
WSpd 4 4 4 4 4 4 4 4 4 4 0 0 0 0
WGst -- -- -- -- -- -- -- -- -- -- -- -- -- --
WSHgt -- -- -- -- -- -- -- -- -- -- -- -- -- --
WSDir -- -- -- -- -- -- -- -- -- -- -- -- -- --
WSSpd -- -- -- -- -- -- -- -- -- -- -- -- -- --
Raw TAF
KMGM 071737Z 0718/0818 VRB04KT P6SM VCSH OVC020
  FM080500 00000KT P6SM OVC008
  FM080700 00000KT 3SM -SHRA BR OVC005
  FM081200 VRB03KT P6SM OVC005
  PROB30 0812/0815 4SM -SHRA BR OVC002


Raw METAR
KMGM 071853Z 01004KT 10SM BKN017 OVC022 12/04 A3009 RMK AO2 SLP188 T01220044
KMGM 071753Z 04004KT 10SM OVC017 12/04 A3013 RMK AO2 SLP201 T01220044 10122 20078 58015
KMGM 071653Z VRB04KT 10SM OVC020 12/04 A3016 RMK AO2 SLP213 T01170039

METAR Board
Radar Display
Forecast Discussion
For situational awareness. Not to be used for flight planning purposes.